Time;durP1;ratioP1;P1;durP2;ratioP2;P2;SDS_P1;SDS_P2;PMS_P1;PMS_P2;Temp;Humidity;BMP_temperature;BMP_pressure;BME280_temperature;BME280_humidity;BME280_pressure;Samples;Min_cycle;Max_cycle;Signal;HPM_P1;HPM_P2
2023/09/08 00:00:29;;;;;;;7.90;4.70;;;;;;;16.55;69.21;102005.19;107378;1255;113413;-68
2023/09/08 00:03:18;;;;;;;14.10;4.80;;;;;;;16.53;69.08;102005.00;107239;1259;110746;-64
2023/09/08 00:05:46;;;;;;;10.90;5.30;;;;;;;16.52;68.98;102003.48;107387;1255;107457;-65
2023/09/08 00:08:15;;;;;;;7.60;4.30;;;;;;;16.51;69.01;102004.29;107377;1254;99180;-66
2023/09/08 00:10:43;;;;;;;7.90;4.50;;;;;;;16.52;68.99;102002.97;107417;1254;99909;-66
2023/09/08 00:13:11;;;;;;;9.60;4.70;;;;;;;16.53;69.01;102002.37;107371;1254;113457;-64
2023/09/08 00:15:39;;;;;;;9.70;4.70;;;;;;;16.52;68.99;102003.12;107387;1254;110261;-64
2023/09/08 00:18:07;;;;;;;12.50;4.70;;;;;;;16.51;68.94;102002.15;107363;1254;107202;-65
2023/09/08 00:20:36;;;;;;;7.30;4.20;;;;;;;16.50;69.09;102002.26;107391;1254;99203;-66
2023/09/08 00:23:04;;;;;;;8.60;4.90;;;;;;;16.48;68.97;102005.02;107385;1254;99826;-65
2023/09/08 00:25:32;;;;;;;9.60;4.90;;;;;;;16.44;68.88;102005.13;107429;1254;115049;-66
2023/09/08 00:28:00;;;;;;;16.70;4.20;;;;;;;16.41;69.01;102007.96;107370;1254;109650;-64
2023/09/08 00:30:28;;;;;;;11.20;4.60;;;;;;;16.36;69.11;102008.48;107367;1257;107816;-66
2023/09/08 00:32:57;;;;;;;7.80;4.10;;;;;;;16.27;69.14;102013.95;107329;1253;99176;-65
2023/09/08 00:35:25;;;;;;;11.90;3.60;;;;;;;16.22;69.14;102011.37;107385;1254;99803;-65
2023/09/08 00:37:54;;;;;;;6.80;3.90;;;;;;;16.19;69.14;102010.80;107372;1254;115692;-65
2023/09/08 00:40:22;;;;;;;12.20;4.40;;;;;;;16.14;69.25;102017.38;107383;1254;109449;-65
2023/09/08 00:42:51;;;;;;;8.40;4.00;;;;;;;16.10;69.29;102014.23;107355;1254;107608;-64
2023/09/08 00:45:20;;;;;;;9.50;4.30;;;;;;;16.10;69.45;102014.45;107404;1254;99209;-65
2023/09/08 00:47:48;;;;;;;8.30;4.10;;;;;;;16.09;69.46;102014.06;107380;1254;99224;-65
2023/09/08 00:50:17;;;;;;;6.80;4.20;;;;;;;16.06;69.43;102017.00;107379;1254;112430;-65
2023/09/08 00:52:45;;;;;;;9.30;3.90;;;;;;;16.02;69.46;102020.26;107365;1254;109257;-66
2023/09/08 00:55:14;;;;;;;13.60;4.50;;;;;;;16.00;69.41;102019.36;107394;1253;108193;-67
2023/09/08 00:57:42;;;;;;;7.60;3.80;;;;;;;15.95;69.51;102022.19;107270;1254;99083;-66
2023/09/08 01:00:11;;;;;;;12.00;4.00;;;;;;;15.89;69.53;102025.64;107372;1254;99748;-65
2023/09/08 01:02:40;;;;;;;6.70;3.60;;;;;;;15.85;69.53;102025.61;107421;1253;113396;-64
2023/09/08 01:05:08;;;;;;;12.20;3.70;;;;;;;15.83;69.46;102025.99;107394;1254;109069;-66
2023/09/08 01:07:37;;;;;;;7.60;3.90;;;;;;;15.81;69.53;102023.60;107210;1256;107230;-65
2023/09/08 01:10:07;;;;;;;6.70;3.70;;;;;;;15.78;69.61;102024.73;107116;1257;99358;-66
2023/09/08 01:12:35;;;;;;;7.00;3.80;;;;;;;15.74;69.53;102023.50;107157;1256;99217;-65
2023/09/08 01:15:05;;;;;;;7.20;3.80;;;;;;;15.72;69.69;102021.55;107363;1257;113443;-65
2023/09/08 01:17:34;;;;;;;5.80;3.50;;;;;;;15.67;69.67;102024.13;107381;1257;108482;-65
2023/09/08 01:20:09;;;;;;;8.50;3.50;;;;;;;15.60;69.66;102024.75;107350;1259;108010;-64
2023/09/08 01:22:49;;;;;;;8.90;3.70;;;;;;;15.56;69.85;102029.99;107372;1254;98961;-65
2023/09/08 01:25:27;;;;;;;6.40;3.20;;;;;;;15.52;69.89;102034.91;107412;1254;99221;-66
2023/09/08 01:28:00;;;;;;;10.50;3.90;;;;;;;15.50;69.88;102031.99;107378;1254;113231;-65
2023/09/08 01:30:33;;;;;;;7.40;3.30;;;;;;;15.50;69.96;102034.52;107373;1257;109143;-66
2023/09/08 01:33:01;;;;;;;12.10;5.10;;;;;;;15.49;70.04;102034.63;107334;1257;108932;-65
2023/09/08 01:35:30;;;;;;;11.00;3.40;;;;;;;15.47;69.94;102032.78;107377;1256;99180;-65
2023/09/08 01:38:01;;;;;;;7.20;3.60;;;;;;;15.44;70.00;102027.10;107347;1254;99206;-65
2023/09/08 01:40:30;;;;;;;6.10;3.30;;;;;;;15.37;70.17;102029.49;107295;1254;111856;-65
2023/09/08 01:42:58;;;;;;;7.40;3.30;;;;;;;15.32;70.22;102024.52;107203;1260;108835;-65
2023/09/08 01:45:27;;;;;;;11.20;3.10;;;;;;;15.28;70.28;102023.38;107203;1257;108333;-65
2023/09/08 01:47:56;;;;;;;8.30;3.70;;;;;;;15.25;70.23;102022.06;107284;1257;99273;-64
2023/09/08 01:50:25;;;;;;;5.80;3.10;;;;;;;15.20;70.24;102021.20;107363;1256;99067;-64
2023/09/08 01:52:53;;;;;;;4.00;3.30;;;;;;;15.17;70.28;102015.86;107340;1257;113103;-64
2023/09/08 01:55:23;;;;;;;6.90;3.50;;;;;;;15.17;70.43;102019.01;107345;1257;108785;-65
2023/09/08 01:57:51;;;;;;;7.30;3.30;;;;;;;15.15;70.35;102020.79;107334;1258;107919;-64
2023/09/08 02:00:20;;;;;;;9.60;3.40;;;;;;;15.11;70.64;102019.91;107208;1260;99351;-65
2023/09/08 02:02:48;;;;;;;6.40;3.30;;;;;;;15.03;70.49;102016.60;107302;1256;99169;-64
2023/09/08 02:05:17;;;;;;;9.60;3.70;;;;;;;14.96;70.62;102011.99;107238;1257;112945;-65
2023/09/08 02:07:45;;;;;;;6.40;3.20;;;;;;;14.91;70.69;102012.95;107231;1257;109489;-65
2023/09/08 02:10:13;;;;;;;6.50;3.40;;;;;;;14.89;70.69;102016.18;107346;1256;107177;-67
2023/09/08 02:12:42;;;;;;;8.60;3.50;;;;;;;14.86;70.82;102010.10;107225;1254;99184;-66
2023/09/08 02:15:11;;;;;;;10.80;3.40;;;;;;;14.83;70.82;102013.58;107436;1254;99163;-64
2023/09/08 02:17:39;;;;;;;13.40;3.20;;;;;;;14.80;70.84;102013.23;107199;1257;113764;-65
2023/09/08 02:20:08;;;;;;;12.60;3.50;;;;;;;14.77;70.91;102010.23;106997;1255;109403;-66
2023/09/08 02:22:36;;;;;;;8.60;3.50;;;;;;;14.74;70.98;102011.00;107260;1257;106561;-66
2023/09/08 02:25:05;;;;;;;9.20;3.30;;;;;;;14.75;71.01;102012.41;107347;1257;99195;-65
2023/09/08 02:27:34;;;;;;;6.50;3.40;;;;;;;14.75;71.09;102015.11;107256;1254;99189;-65
2023/09/08 02:30:03;;;;;;;8.60;3.50;;;;;;;14.73;70.93;102019.06;107363;1257;113118;-64
2023/09/08 02:32:31;;;;;;;12.20;3.30;;;;;;;14.71;70.97;102024.58;107381;1259;108397;-65
2023/09/08 02:34:59;;;;;;;6.00;2.80;;;;;;;14.69;70.90;102027.27;107230;1257;107542;-64
2023/09/08 02:37:28;;;;;;;6.50;3.00;;;;;;;14.65;70.88;102029.09;107335;1254;99269;-65
2023/09/08 02:39:56;;;;;;;8.20;3.70;;;;;;;14.60;70.98;102024.59;107378;1254;99205;-65
2023/09/08 02:42:25;;;;;;;7.60;3.20;;;;;;;14.56;70.99;102019.82;107340;1257;113233;-65
2023/09/08 02:44:58;;;;;;;10.00;3.60;;;;;;;14.53;71.06;102019.58;107408;1254;109639;-66
2023/09/08 02:47:27;;;;;;;4.80;3.30;;;;;;;14.49;71.01;102021.00;107360;1254;108029;-64
2023/09/08 02:49:57;;;;;;;10.40;3.00;;;;;;;14.46;71.28;102023.94;107363;1254;99256;-65
2023/09/08 02:52:25;;;;;;;5.40;3.50;;;;;;;14.43;71.48;102025.86;107349;1256;99061;-65
2023/09/08 02:54:53;;;;;;;7.20;3.30;;;;;;;14.39;71.41;102023.06;107364;1257;113540;-65
2023/09/08 02:57:22;;;;;;;8.30;3.30;;;;;;;14.35;71.41;102029.05;107376;1257;109737;-66
2023/09/08 02:59:56;;;;;;;13.00;3.70;;;;;;;14.32;71.27;102029.90;107220;1257;109192;-66
2023/09/08 03:02:26;;;;;;;8.10;3.10;;;;;;;14.27;71.27;102026.87;107376;1254;99170;-66
2023/09/08 03:04:54;;;;;;;17.90;3.60;;;;;;;14.24;71.33;102027.08;107316;1257;99077;-65
2023/09/08 03:07:22;;;;;;;10.90;3.90;;;;;;;14.23;71.43;102026.44;107360;1257;112490;-65
2023/09/08 03:09:51;;;;;;;10.60;3.60;;;;;;;14.22;71.52;102024.89;107291;1254;109258;-65
2023/09/08 03:12:19;;;;;;;14.70;3.50;;;;;;;14.20;71.68;102021.31;107142;1254;107593;-65
2023/09/08 03:14:47;;;;;;;8.00;3.40;;;;;;;14.17;71.79;102028.64;107277;1254;99200;-65
2023/09/08 03:17:15;;;;;;;7.20;3.30;;;;;;;14.13;71.78;102029.11;107386;1254;99861;-64
2023/09/08 03:19:47;;;;;;;11.30;3.70;;;;;;;14.06;71.91;102028.77;107323;1254;113952;-65
2023/09/08 03:22:15;;;;;;;6.50;3.40;;;;;;;14.01;71.86;102033.66;107254;1257;109456;-66
2023/09/08 03:24:43;;;;;;;9.30;3.30;;;;;;;13.98;71.94;102035.23;107107;1257;108601;-64
2023/09/08 03:27:11;;;;;;;4.50;3.20;;;;;;;13.95;71.97;102032.96;107214;1257;99201;-64
2023/09/08 03:29:39;;;;;;;5.60;3.40;;;;;;;13.91;71.95;102033.97;107217;1257;99784;-64
2023/09/08 03:32:08;;;;;;;14.60;3.40;;;;;;;13.87;71.96;102035.94;107270;1255;113337;-65
2023/09/08 03:34:39;;;;;;;7.70;3.10;;;;;;;13.85;71.90;102038.43;107345;1256;108757;-66
2023/09/08 03:37:08;;;;;;;13.00;3.70;;;;;;;13.82;72.05;102035.23;107138;1257;107295;-64
2023/09/08 03:39:37;;;;;;;6.00;3.30;;;;;;;13.80;71.94;102032.70;107209;1256;99173;-65
2023/09/08 03:42:05;;;;;;;6.30;3.20;;;;;;;13.79;71.88;102031.76;107342;1255;99704;-65
2023/09/08 03:44:34;;;;;;;6.80;3.50;;;;;;;13.77;72.06;102034.38;107301;1257;112773;-65
2023/09/08 03:47:03;;;;;;;9.90;3.10;;;;;;;13.75;72.01;102038.38;107330;1256;110144;-65
2023/09/08 03:49:32;;;;;;;8.60;3.00;;;;;;;13.71;71.89;102040.30;107256;1257;108536;-64
2023/09/08 03:52:01;;;;;;;7.00;3.40;;;;;;;13.69;72.07;102039.58;107257;1257;99333;-65
2023/09/08 03:54:32;;;;;;;7.00;3.60;;;;;;;13.66;72.13;102036.93;107386;1256;99356;-66
2023/09/08 03:57:00;;;;;;;8.10;3.40;;;;;;;13.67;72.20;102043.38;107383;1254;114299;-66
2023/09/08 03:59:29;;;;;;;6.70;3.80;;;;;;;13.67;72.20;102041.39;107370;1254;109951;-64
2023/09/08 04:01:57;;;;;;;8.10;3.20;;;;;;;13.65;72.30;102042.63;107381;1254;108340;-64
2023/09/08 04:04:25;;;;;;;6.60;3.10;;;;;;;13.61;72.44;102042.90;107339;1254;99752;-64
2023/09/08 04:06:54;;;;;;;12.30;3.50;;;;;;;13.59;72.39;102042.73;107382;1254;99334;-65
2023/09/08 04:09:22;;;;;;;6.20;2.80;;;;;;;13.58;72.51;102048.38;107375;1254;112505;-66
2023/09/08 04:11:50;;;;;;;6.40;3.40;;;;;;;13.55;72.67;102052.81;107333;1257;109167;-65
2023/09/08 04:14:18;;;;;;;13.20;3.40;;;;;;;13.53;72.63;102052.98;107346;1257;107758;-63
2023/09/08 04:16:47;;;;;;;10.10;3.30;;;;;;;13.50;72.80;102053.55;107293;1257;100472;-64
2023/09/08 04:19:16;;;;;;;8.60;3.80;;;;;;;13.49;72.86;102056.16;107224;1257;99260;-65
2023/09/08 04:21:44;;;;;;;11.40;5.20;;;;;;;13.49;73.06;102058.30;107222;1257;113658;-65
2023/09/08 04:24:12;;;;;;;11.60;3.50;;;;;;;13.50;73.19;102060.06;107223;1257;110063;-66
2023/09/08 04:26:40;;;;;;;11.80;3.50;;;;;;;13.51;73.23;102058.12;107312;1256;107519;-65
2023/09/08 04:29:09;;;;;;;6.70;3.40;;;;;;;13.54;73.28;102060.45;107322;1256;99220;-65
2023/09/08 04:31:37;;;;;;;8.00;3.60;;;;;;;13.56;73.41;102060.11;107332;1257;99071;-64
2023/09/08 04:34:06;;;;;;;5.90;3.20;;;;;;;13.58;73.29;102061.70;107247;1256;113784;-65
2023/09/08 04:36:35;;;;;;;8.50;4.40;;;;;;;13.60;73.38;102062.25;107366;1257;108833;-65
2023/09/08 04:39:04;;;;;;;10.60;3.70;;;;;;;13.64;73.59;102064.17;107198;1257;107853;-66
2023/09/08 04:41:32;;;;;;;13.20;3.80;;;;;;;13.65;73.75;102066.80;107159;1257;99301;-65
2023/09/08 04:44:01;;;;;;;12.70;3.90;;;;;;;13.67;73.50;102064.99;107249;1255;100041;-66
2023/09/08 04:46:30;;;;;;;7.60;3.40;;;;;;;13.72;73.55;102068.71;107243;1261;113145;-65
2023/09/08 04:48:59;;;;;;;13.60;3.60;;;;;;;13.76;73.54;102072.66;107341;1257;108861;-65
2023/09/08 04:51:28;;;;;;;10.90;4.80;;;;;;;13.81;73.55;102074.80;107385;1257;107766;-64
2023/09/08 04:53:56;;;;;;;7.80;4.20;;;;;;;13.87;73.59;102077.25;107327;1257;99209;-64
2023/09/08 04:56:24;;;;;;;20.50;4.00;;;;;;;13.92;73.57;102075.94;107238;1258;99064;-64
2023/09/08 04:58:54;;;;;;;17.90;3.80;;;;;;;13.97;73.40;102074.64;107216;1257;112568;-64
2023/09/08 05:01:23;;;;;;;20.90;4.20;;;;;;;14.00;73.80;102079.23;107364;1254;110042;-64
2023/09/08 05:03:52;;;;;;;10.30;4.70;;;;;;;14.00;73.75;102075.60;107227;1254;107678;-63
2023/09/08 05:06:20;;;;;;;14.80;4.10;;;;;;;14.04;73.52;102077.51;107331;1257;99156;-64
2023/09/08 05:08:49;;;;;;;18.60;4.60;;;;;;;14.11;73.60;102078.90;107218;1257;99137;-64
2023/09/08 05:11:19;;;;;;;18.50;4.50;;;;;;;14.18;73.67;102075.94;107382;1258;112585;-64
2023/09/08 05:13:47;;;;;;;13.60;4.50;;;;;;;14.26;73.63;102082.14;107392;1254;110001;-64
2023/09/08 05:16:17;;;;;;;17.30;5.30;;;;;;;14.34;73.44;102080.23;107231;1254;108855;-64
2023/09/08 05:18:50;;;;;;;11.30;4.10;;;;;;;14.42;73.25;102080.27;107290;1254;99168;-64
2023/09/08 05:21:19;;;;;;;13.50;4.50;;;;;;;14.50;73.18;102077.59;107397;1254;99134;-64
2023/09/08 05:23:48;;;;;;;9.70;3.70;;;;;;;14.58;73.17;102082.38;107282;1260;112874;-65
2023/09/08 05:26:16;;;;;;;12.30;4.00;;;;;;;14.64;73.12;102081.67;107374;1254;109721;-64
2023/09/08 05:28:45;;;;;;;14.50;4.00;;;;;;;14.72;73.03;102083.20;107377;1254;107602;-64
2023/09/08 05:31:13;;;;;;;10.50;4.60;;;;;;;14.80;73.00;102085.20;107391;1254;99179;-64
2023/09/08 05:33:42;;;;;;;15.30;4.70;;;;;;;14.88;72.79;102084.89;107411;1254;100878;-64
2023/09/08 05:36:11;;;;;;;10.80;4.30;;;;;;;14.95;72.56;102082.64;107399;1254;113510;-64
2023/09/08 05:38:44;;;;;;;21.00;5.00;;;;;;;15.03;72.41;102080.02;107337;1254;109125;-65
2023/09/08 05:41:12;;;;;;;18.90;5.30;;;;;;;15.09;72.07;102082.95;107371;1258;107822;-65
2023/09/08 05:43:44;;;;;;;12.90;5.40;;;;;;;15.15;71.92;102081.48;107299;1257;99308;-64
2023/09/08 05:46:13;;;;;;;14.10;5.10;;;;;;;15.21;71.28;102079.56;107286;1257;99352;-65
2023/09/08 05:48:42;;;;;;;12.20;5.00;;;;;;;15.24;71.05;102078.02;107235;1257;112451;-64
2023/09/08 05:51:10;;;;;;;18.80;4.30;;;;;;;15.26;70.08;102080.19;107229;1254;109921;-64
2023/09/08 05:53:39;;;;;;;13.90;4.80;;;;;;;15.26;69.59;102081.48;107349;1258;108368;-64
2023/09/08 05:56:09;;;;;;;14.30;5.20;;;;;;;15.29;69.36;102086.03;107390;1257;99166;-65
2023/09/08 05:58:39;;;;;;;11.00;4.80;;;;;;;15.31;68.57;102087.86;107285;1254;99729;-65
2023/09/08 06:01:08;;;;;;;11.40;4.70;;;;;;;15.31;67.87;102088.55;107378;1254;115356;-65
2023/09/08 06:03:36;;;;;;;13.70;5.20;;;;;;;15.35;67.71;102090.60;107282;1254;109199;-65
2023/09/08 06:06:04;;;;;;;11.40;4.40;;;;;;;15.37;67.22;102093.18;107346;1258;107664;-65
2023/09/08 06:08:33;;;;;;;13.50;5.30;;;;;;;15.39;67.23;102098.38;107293;1254;99349;-66
2023/09/08 06:11:02;;;;;;;12.40;5.00;;;;;;;15.45;67.36;102095.90;107415;1258;99127;-67
2023/09/08 06:13:33;;;;;;;15.00;5.10;;;;;;;15.50;67.03;102097.05;107373;1257;113422;-64
2023/09/08 06:16:02;;;;;;;9.70;4.70;;;;;;;15.56;66.64;102102.36;107361;1257;108458;-65
2023/09/08 06:18:30;;;;;;;11.40;5.00;;;;;;;15.60;66.42;102100.12;107371;1257;108576;-65
2023/09/08 06:20:59;;;;;;;12.40;5.50;;;;;;;15.66;66.07;102102.38;107258;1257;99212;-64
2023/09/08 06:23:27;;;;;;;15.30;6.40;;;;;;;15.72;66.01;102098.77;107115;1257;99720;-66
2023/09/08 06:26:00;;;;;;;23.70;5.70;;;;;;;15.79;66.16;102097.22;107155;1257;113100;-66
2023/09/08 06:28:28;;;;;;;18.00;5.90;;;;;;;15.86;65.77;102095.55;107105;1257;108985;-65
2023/09/08 06:30:57;;;;;;;13.10;4.70;;;;;;;15.91;64.58;102092.17;107205;1261;107804;-65
2023/09/08 06:33:25;;;;;;;13.80;4.50;;;;;;;15.97;64.42;102088.24;107193;1258;99285;-65
2023/09/08 06:35:55;;;;;;;12.20;4.10;;;;;;;16.04;64.32;102087.02;107398;1257;99714;-65
2023/09/08 06:38:23;;;;;;;12.30;4.40;;;;;;;16.11;64.32;102082.60;107251;1256;113608;-64
2023/09/08 06:40:53;;;;;;;21.60;4.90;;;;;;;16.18;63.97;102083.21;107265;1256;109687;-65
2023/09/08 06:43:22;;;;;;;13.60;5.30;;;;;;;16.26;63.34;102087.25;107296;1257;108083;-65
2023/09/08 06:45:57;;;;;;;15.50;4.60;;;;;;;16.37;62.76;102085.63;107342;1254;99275;-65
2023/09/08 06:48:25;;;;;;;11.30;4.50;;;;;;;16.46;63.04;102084.29;107354;1257;99070;-63
2023/09/08 06:50:58;;;;;;;9.20;4.60;;;;;;;16.55;63.01;102087.07;107390;1256;112038;-64
2023/09/08 06:53:43;;;;;;;12.40;5.60;;;;;;;16.64;61.98;102087.75;107074;1257;109038;-64
2023/09/08 06:56:12;;;;;;;13.00;4.00;;;;;;;16.74;61.26;102081.13;107267;1257;107617;-63
2023/09/08 06:58:40;;;;;;;12.10;5.10;;;;;;;16.83;61.01;102080.61;107232;1256;99194;-63
2023/09/08 07:01:08;;;;;;;15.60;4.30;;;;;;;16.95;61.23;102081.76;107396;1257;99233;-64
2023/09/08 07:03:37;;;;;;;9.30;4.20;;;;;;;17.05;61.05;102082.45;107376;1258;112228;-64
2023/09/08 07:06:08;;;;;;;11.80;3.90;;;;;;;17.13;61.03;102080.36;107361;1257;109215;-64
2023/09/08 07:08:37;;;;;;;8.90;3.70;;;;;;;17.22;60.94;102081.02;107388;1258;106893;-64
2023/09/08 07:11:05;;;;;;;8.20;4.30;;;;;;;17.29;60.73;102080.48;107372;1257;99319;-63
2023/09/08 07:13:33;;;;;;;18.00;4.00;;;;;;;17.38;60.54;102080.91;107343;1260;100069;-63
2023/09/08 07:16:02;;;;;;;12.70;3.40;;;;;;;17.47;60.51;102078.71;107257;1258;112090;-63
2023/09/08 07:18:35;;;;;;;7.00;3.40;;;;;;;17.57;59.96;102075.65;107347;1257;109934;-63
2023/09/08 07:21:05;;;;;;;8.20;2.70;;;;;;;17.67;59.16;102079.92;107250;1257;108286;-62
2023/09/08 07:23:35;;;;;;;12.50;2.80;;;;;;;17.76;57.92;102082.84;107342;1259;99166;-63
2023/09/08 07:26:04;;;;;;;10.60;3.30;;;;;;;17.87;57.30;102079.27;107379;1256;99163;-64
2023/09/08 07:28:33;;;;;;;9.40;2.90;;;;;;;17.98;56.67;102080.54;107363;1257;112655;-64
2023/09/08 07:31:05;;;;;;;9.00;2.90;;;;;;;18.08;55.35;102079.14;107372;1258;109037;-64
2023/09/08 07:33:34;;;;;;;13.20;2.90;;;;;;;18.20;55.81;102076.90;107220;1261;106801;-64
2023/09/08 07:36:07;;;;;;;7.40;2.80;;;;;;;18.31;55.50;102074.52;107324;1257;99297;-64
2023/09/08 07:38:36;;;;;;;15.10;2.80;;;;;;;18.43;55.51;102069.09;107292;1255;99086;-63
2023/09/08 07:41:06;;;;;;;10.30;2.70;;;;;;;18.57;54.80;102067.70;107278;1260;112807;-63
2023/09/08 07:43:34;;;;;;;10.70;2.40;;;;;;;18.72;54.14;102065.44;107378;1254;111158;-63
2023/09/08 07:46:03;;;;;;;7.60;3.70;;;;;;;18.86;52.96;102060.16;107266;1254;107633;-62
2023/09/08 07:48:32;;;;;;;10.10;2.40;;;;;;;18.99;48.42;102060.85;107337;1255;99355;-64
2023/09/08 07:51:01;;;;;;;10.80;1.80;;;;;;;19.15;49.04;102062.66;107422;1254;99093;-62
2023/09/08 07:53:30;;;;;;;9.00;2.20;;;;;;;19.31;49.34;102059.40;107240;1258;112352;-63
2023/09/08 07:55:59;;;;;;;5.10;2.70;;;;;;;19.46;49.18;102053.30;107381;1257;110061;-63
2023/09/08 07:58:27;;;;;;;5.70;2.20;;;;;;;19.60;48.09;102048.14;107380;1257;107383;-63
2023/09/08 08:00:55;;;;;;;5.20;2.20;;;;;;;19.75;48.22;102044.91;107376;1257;99256;-63
2023/09/08 08:03:23;;;;;;;5.80;2.40;;;;;;;19.93;46.72;102039.33;107233;1258;99134;-63
2023/09/08 08:05:52;;;;;;;35.90;22.90;;;;;;;20.10;47.39;102041.34;107352;1257;113569;-63
2023/09/08 08:08:20;;;;;;;8.60;3.70;;;;;;;20.24;47.33;102042.71;107296;1257;112657;-63
2023/09/08 08:10:48;;;;;;;16.00;3.00;;;;;;;20.38;46.03;102040.47;107232;1257;107052;-63
2023/09/08 08:13:16;;;;;;;6.60;2.50;;;;;;;20.53;44.78;102042.22;107243;1259;99180;-63
2023/09/08 08:15:49;;;;;;;8.70;2.10;;;;;;;20.70;44.09;102043.65;107260;1257;99717;-63
2023/09/08 08:18:17;;;;;;;13.70;2.10;;;;;;;20.88;43.87;102038.92;107221;1257;112197;-63
2023/09/08 08:20:46;;;;;;;3.60;2.00;;;;;;;21.02;44.18;102038.95;107248;1257;107941;-63
2023/09/08 08:23:15;;;;;;;8.50;2.00;;;;;;;21.16;44.27;102036.48;107264;1258;107849;-63
2023/09/08 08:25:43;;;;;;;6.10;2.10;;;;;;;21.31;43.63;102031.48;107213;1260;99316;-64
2023/09/08 08:28:11;;;;;;;4.80;1.50;;;;;;;21.46;43.64;102033.99;107268;1257;97580;-63
2023/09/08 08:30:39;;;;;;;7.20;1.90;;;;;;;21.62;42.67;102032.95;107257;1257;113745;-63
2023/09/08 08:33:08;;;;;;;5.70;1.50;;;;;;;21.81;36.98;102032.70;107387;1257;108991;-63
2023/09/08 08:35:37;;;;;;;7.00;1.40;;;;;;;21.98;39.02;102028.36;107332;1256;106748;-64
2023/09/08 08:38:06;;;;;;;6.90;1.30;;;;;;;22.15;37.80;102026.59;107227;1260;99910;-64
2023/09/08 08:40:38;;;;;;;13.70;1.60;;;;;;;22.32;37.01;102027.05;107393;1260;99223;-63
2023/09/08 08:43:07;;;;;;;7.70;1.50;;;;;;;22.54;36.26;102027.48;107386;1259;113391;-63
2023/09/08 08:45:37;;;;;;;6.40;1.70;;;;;;;22.74;36.70;102025.02;107274;1256;108330;-63
2023/09/08 08:48:08;;;;;;;4.30;1.80;;;;;;;22.97;34.94;102024.78;107297;1258;108306;-63
2023/09/08 08:50:38;;;;;;;5.80;2.10;;;;;;;23.19;35.64;102026.67;107329;1258;99264;-63
2023/09/08 08:53:08;;;;;;;7.20;2.30;;;;;;;23.41;34.98;102023.09;107376;1257;99733;-64
2023/09/08 08:55:36;;;;;;;10.10;2.10;;;;;;;23.62;35.43;102019.94;107377;1257;112374;-65
2023/09/08 08:58:05;;;;;;;5.40;2.20;;;;;;;23.83;35.58;102020.09;107377;1257;109506;-63
2023/09/08 09:00:36;;;;;;;3.50;2.10;;;;;;;24.07;33.59;102019.02;107361;1260;107676;-63
2023/09/08 09:03:06;;;;;;;5.40;2.00;;;;;;;24.29;33.69;102023.84;107399;1254;99204;-63
2023/09/08 09:05:44;;;;;;;9.40;1.60;;;;;;;24.52;32.98;102021.74;107398;1254;99188;-64
2023/09/08 09:08:17;;;;;;;18.80;1.90;;;;;;;24.78;32.05;102021.02;107373;1255;113518;-64
2023/09/08 09:10:46;;;;;;;11.70;2.60;;;;;;;25.00;32.44;102015.56;107441;1258;109948;-65
2023/09/08 09:13:15;;;;;;;9.50;2.30;;;;;;;25.28;32.20;102013.89;107267;1258;108394;-63
2023/09/08 09:15:45;;;;;;;11.90;4.90;;;;;;;25.55;30.62;102011.99;107176;1259;99177;-63
2023/09/08 09:18:13;;;;;;;8.80;1.60;;;;;;;25.75;30.51;102005.56;107315;1255;99072;-63
2023/09/08 09:20:53;;;;;;;4.60;1.60;;;;;;;26.03;30.29;102001.06;107358;1259;113228;-63
2023/09/08 09:23:33;;;;;;;4.70;1.70;;;;;;;26.55;30.89;101998.52;107356;1259;109479;-63
2023/09/08 09:26:06;;;;;;;4.50;1.80;;;;;;;27.22;28.49;101994.78;107165;1260;108673;-63
2023/09/08 09:28:47;;;;;;;5.10;1.40;;;;;;;27.93;28.79;101991.80;107314;1254;99074;-63
2023/09/08 09:31:15;;;;;;;4.80;1.60;;;;;;;28.78;27.22;101989.23;107394;1260;99341;-63
2023/09/08 09:33:44;;;;;;;3.70;1.80;;;;;;;29.44;26.11;101985.59;107345;1259;112836;-63
2023/09/08 09:36:20;;;;;;;5.20;1.60;;;;;;;30.00;24.75;101988.91;107371;1258;109018;-63
2023/09/08 09:38:49;;;;;;;10.30;1.60;;;;;;;30.50;25.08;101982.33;107376;1259;108654;-63
2023/09/08 09:41:17;;;;;;;4.50;1.10;;;;;;;31.02;23.85;101984.14;107380;1255;99176;-63
2023/09/08 09:43:47;;;;;;;3.40;1.50;;;;;;;31.66;24.94;101977.60;107379;1260;100573;-63
2023/09/08 09:46:15;;;;;;;2.90;1.60;;;;;;;32.35;24.00;101973.80;107415;1260;113719;-63
2023/09/08 09:48:44;;;;;;;5.20;1.30;;;;;;;32.93;20.90;101973.00;107294;1259;109835;-63
2023/09/08 09:51:18;;;;;;;10.60;1.50;;;;;;;33.20;20.91;101966.98;107379;1259;108675;-63
2023/09/08 09:53:47;;;;;;;7.60;1.30;;;;;;;33.46;19.73;101962.45;107385;1260;101139;-63
2023/09/08 09:56:22;;;;;;;7.80;1.50;;;;;;;33.65;20.30;101961.02;106656;1254;984398;-63
2023/09/08 09:58:53;;;;;;;2.80;1.20;;;;;;;33.99;19.27;101959.06;107362;1254;112398;-64
2023/09/08 10:01:24;;;;;;;6.50;1.70;;;;;;;34.08;19.29;101959.09;107409;1254;108597;-65
2023/09/08 10:03:54;;;;;;;1.90;1.30;;;;;;;34.29;20.01;101959.97;107338;1260;108596;-63
2023/09/08 10:06:25;;;;;;;2.40;1.10;;;;;;;34.74;18.67;101958.81;107426;1254;99194;-65
2023/09/08 10:08:55;;;;;;;5.00;1.20;;;;;;;35.05;18.67;101961.66;107363;1254;99213;-64
2023/09/08 10:11:28;;;;;;;4.10;1.40;;;;;;;35.36;18.19;101961.14;107435;1254;113577;-64
2023/09/08 10:13:59;;;;;;;3.20;1.10;;;;;;;35.61;18.05;101958.55;107409;1258;109756;-64
2023/09/08 10:16:28;;;;;;;2.60;1.30;;;;;;;36.01;17.78;101951.63;107367;1254;106807;-64
2023/09/08 10:19:00;;;;;;;7.10;1.30;;;;;;;36.53;16.12;101944.19;107399;1254;99192;-64
2023/09/08 10:21:32;;;;;;;2.60;1.20;;;;;;;36.47;16.40;101945.89;107435;1259;99064;-64
2023/09/08 10:24:22;;;;;;;6.20;1.90;;;;;;;36.58;16.43;101945.58;107443;1254;112762;-64
2023/09/08 10:27:11;;;;;;;8.60;1.80;;;;;;;36.58;15.52;101940.89;107390;1254;109414;-64
2023/09/08 10:29:39;;;;;;;3.90;1.30;;;;;;;36.32;15.37;101939.62;107357;1257;107877;-64
2023/09/08 10:32:09;;;;;;;3.40;1.10;;;;;;;36.09;15.76;101937.98;107353;1257;99179;-64
2023/09/08 10:34:39;;;;;;;5.00;1.00;;;;;;;36.32;16.07;101935.98;107339;1256;98291;-64
2023/09/08 10:37:24;;;;;;;1.80;0.80;;;;;;;36.71;15.49;101934.33;107453;1254;112054;-64
2023/09/08 10:39:52;;;;;;;7.10;1.30;;;;;;;36.98;15.43;101934.13;107390;1258;108667;-64
2023/09/08 10:42:27;;;;;;;6.20;1.40;;;;;;;37.38;13.93;101929.26;107341;1260;108256;-64
2023/09/08 10:44:57;;;;;;;5.80;1.20;;;;;;;37.45;14.09;101920.96;107425;1257;99298;-63
2023/09/08 10:47:33;;;;;;;5.80;1.20;;;;;;;37.62;13.94;101922.80;107374;1256;100381;-64
2023/09/08 10:50:03;;;;;;;3.20;0.80;;;;;;;37.70;14.62;101921.21;107423;1254;111973;-65
2023/09/08 10:52:33;;;;;;;4.70;1.20;;;;;;;38.07;14.16;101911.65;107413;1255;109276;-64
2023/09/08 10:55:02;;;;;;;10.20;1.20;;;;;;;38.40;12.94;101909.56;107422;1257;107706;-64
2023/09/08 10:57:33;;;;;;;4.30;1.20;;;;;;;38.33;12.65;101910.50;107250;1260;99252;-64
2023/09/08 11:00:12;;;;;;;5.80;1.20;;;;;;;37.89;13.97;101909.29;107421;1254;99168;-64
2023/09/08 11:02:50;;;;;;;4.60;0.90;;;;;;;37.99;13.78;101905.61;107275;1260;112762;-64
2023/09/08 11:05:20;;;;;;;3.70;1.20;;;;;;;38.44;14.27;101904.74;107419;1254;109881;-64
2023/09/08 11:07:53;;;;;;;6.30;1.20;;;;;;;38.88;13.72;101902.38;107369;1255;107641;-64
2023/09/08 11:10:22;;;;;;;2.30;1.20;;;;;;;39.25;13.79;101897.19;107377;1254;99191;-65
2023/09/08 11:12:51;;;;;;;8.10;1.90;;;;;;;39.61;12.46;101895.68;107428;1254;99058;-64
2023/09/08 11:15:20;;;;;;;4.40;1.20;;;;;;;39.66;12.79;101895.53;107348;1258;112630;-65
2023/09/08 11:17:50;;;;;;;4.00;1.20;;;;;;;39.91;12.66;101894.63;107246;1257;109314;-64
2023/09/08 11:20:29;;;;;;;5.40;1.00;;;;;;;39.96;13.20;101891.60;107336;1260;108166;-64